Time;durP1;ratioP1;P1;durP2;ratioP2;P2;SDS_P1;SDS_P2;PMS_P1;PMS_P2;Temp;Humidity;BMP_temperature;BMP_pressure;BME280_temperature;BME280_humidity;BME280_pressure;Samples;Min_cycle;Max_cycle;Signal;HPM_P1;HPM_P2
2023/02/16 00:00:04;;;;;;;54.20;20.00;;;1.00;99.90;;;;;;5075080;28;20025;-68
2023/02/16 00:02:30;;;;;;;51.40;19.27;;;1.00;99.90;;;;;;5074030;28;20103;-67
2023/02/16 00:04:55;;;;;;;52.63;20.40;;;1.00;99.90;;;;;;5075436;28;20082;-67
2023/02/16 00:07:21;;;;;;;57.33;19.73;;;1.00;99.90;;;;;;5075144;28;20537;-68
2023/02/16 00:09:46;;;;;;;44.33;19.47;;;1.10;99.90;;;;;;5074003;28;20023;-68
2023/02/16 00:15:19;;;;;;;47.50;18.77;;;1.10;99.90;;;;;;5075248;28;20369;-67
2023/02/16 00:17:45;;;;;;;36.78;18.08;;;1.10;99.90;;;;;;5074699;28;20420;-67
2023/02/16 00:20:15;;;;;;;33.80;18.43;;;1.20;99.90;;;;;;5074357;28;20020;-68
2023/02/16 00:22:40;;;;;;;40.65;18.35;;;1.10;99.90;;;;;;5074365;28;20111;-68
2023/02/16 00:25:07;;;;;;;30.87;18.23;;;1.10;99.90;;;;;;5072923;28;20120;-68
2023/02/16 00:27:33;;;;;;;32.28;18.08;;;1.20;99.90;;;;;;5074244;28;20546;-68
2023/02/16 00:29:59;;;;;;;36.47;18.55;;;1.20;99.90;;;;;;5074170;28;20107;-68
2023/02/16 00:32:24;;;;;;;33.38;18.60;;;1.20;99.90;;;;;;5072928;28;20074;-68
2023/02/16 00:34:50;;;;;;;34.70;19.07;;;1.30;99.90;;;;;;5073980;28;20029;-68
2023/02/16 00:37:15;;;;;;;32.53;18.03;;;1.10;99.90;;;;;;5073983;28;20082;-68
2023/02/16 00:39:43;;;;;;;37.37;18.73;;;1.10;99.90;;;;;;5074593;28;20028;-68
2023/02/16 00:42:17;;;;;;;39.08;18.80;;;1.20;99.90;;;;;;5073975;28;20036;-67
2023/02/16 00:44:47;;;;;;;32.70;18.45;;;1.20;99.90;;;;;;5072833;28;20071;-67
2023/02/16 00:47:26;;;;;;;38.10;18.25;;;1.20;99.90;;;;;;5074113;28;20042;-67
2023/02/16 00:49:53;;;;;;;38.67;19.42;;;1.20;99.90;;;;;;5073678;28;20024;-68
2023/02/16 00:52:42;;;;;;;39.22;19.30;;;1.00;99.90;;;;;;5073886;28;20059;-68
2023/02/16 00:55:20;;;;;;;35.72;18.08;;;1.00;99.90;;;;;;5074228;28;20108;-68
2023/02/16 00:57:55;;;;;;;41.15;18.73;;;1.20;99.90;;;;;;5074235;28;20025;-68
2023/02/16 01:00:30;;;;;;;34.88;17.60;;;1.30;99.90;;;;;;5072526;28;20025;-67
2023/02/16 01:02:59;;;;;;;35.85;19.00;;;1.20;99.90;;;;;;5072701;28;20052;-67
2023/02/16 01:05:24;;;;;;;37.78;19.40;;;1.10;99.90;;;;;;5073212;28;20485;-67
2023/02/16 01:11:06;;;;;;;36.85;19.30;;;0.90;99.90;;;;;;5073881;28;20436;-66
2023/02/16 01:13:47;;;;;;;37.88;19.63;;;1.00;99.90;;;;;;5072289;28;20025;-67
2023/02/16 01:16:38;;;;;;;39.30;20.52;;;1.20;99.90;;;;;;5073495;28;20020;-67
2023/02/16 01:19:06;;;;;;;38.33;20.20;;;1.00;99.90;;;;;;5068602;28;20042;-67
2023/02/16 01:21:31;;;;;;;43.42;19.95;;;1.00;99.90;;;;;;5073331;28;20438;-67
2023/02/16 01:23:57;;;;;;;38.13;19.67;;;1.00;99.90;;;;;;5073332;28;20036;-67
2023/02/16 01:26:23;;;;;;;37.10;19.57;;;1.10;99.90;;;;;;5072300;28;20491;-68
2023/02/16 01:28:49;;;;;;;39.67;20.80;;;1.10;99.90;;;;;;5073718;28;20028;-68
2023/02/16 01:31:15;;;;;;;43.15;20.52;;;1.10;99.90;;;;;;5073644;28;20056;-67
2023/02/16 01:33:41;;;;;;;43.58;20.38;;;1.20;99.90;;;;;;5073634;28;20025;-68
2023/02/16 01:36:22;;;;;;;41.53;19.98;;;1.20;99.90;;;;;;5073588;28;20016;-68
2023/02/16 01:38:48;;;;;;;39.45;21.27;;;1.10;99.90;;;;;;5073884;28;20384;-68
2023/02/16 01:41:35;;;;;;;36.33;19.20;;;1.20;99.90;;;;;;5073031;28;20157;-67
2023/02/16 01:44:08;;;;;;;39.17;18.67;;;1.30;99.90;;;;;;5072541;28;20059;-68
2023/02/16 01:46:41;;;;;;;34.67;19.30;;;1.20;99.90;;;;;;5073327;28;20496;-68
2023/02/16 01:49:15;;;;;;;38.20;19.98;;;1.20;99.90;;;;;;5071687;28;20552;-67
2023/02/16 01:51:54;;;;;;;40.35;20.95;;;1.30;99.90;;;;;;5072000;28;20384;-69
2023/02/16 01:54:32;;;;;;;34.00;19.17;;;1.40;99.90;;;;;;5072241;28;20021;-69
2023/02/16 01:57:14;;;;;;;37.45;19.38;;;1.30;99.90;;;;;;5072002;28;20115;-69
2023/02/16 01:59:40;;;;;;;39.63;20.70;;;1.40;99.90;;;;;;5073003;28;20077;-68
2023/02/16 02:02:18;;;;;;;40.03;21.70;;;1.40;99.90;;;;;;5071496;28;20028;-68
2023/02/16 02:07:47;;;;;;;39.88;20.63;;;1.10;99.90;;;;;;5073400;28;20044;-69
2023/02/16 02:10:15;;;;;;;41.38;20.75;;;1.10;99.90;;;;;;5071975;28;20495;-68
2023/02/16 02:12:56;;;;;;;37.90;19.23;;;1.30;99.90;;;;;;5076627;28;20413;-67
2023/02/16 02:15:26;;;;;;;36.55;20.80;;;1.30;99.90;;;;;;5077081;28;20476;-67
2023/02/16 02:17:52;;;;;;;40.50;21.50;;;1.20;99.90;;;;;;5076953;28;20138;-68
2023/02/16 02:24:01;;;;;;;38.70;19.60;;;1.10;99.90;;;;;;5076746;28;20086;-67
2023/02/16 02:26:38;;;;;;;57.03;21.55;;;1.10;99.90;;;;;;5075437;28;20023;-69
2023/02/16 02:29:19;;;;;;;62.88;22.60;;;1.00;99.90;;;;;;5076694;28;20028;-67
2023/02/16 02:31:52;;;;;;;41.00;19.58;;;1.00;99.90;;;;;;5075288;28;20067;-68
2023/02/16 02:34:23;;;;;;;42.22;21.35;;;0.90;99.90;;;;;;5060538;28;20044;-68
2023/02/16 02:37:27;;;;;;;50.97;23.10;;;0.90;99.90;;;;;;5055900;28;20429;-68
2023/02/16 02:40:16;;;;;;;38.60;21.13;;;0.90;99.90;;;;;;5054684;28;20181;-68
2023/02/16 02:42:57;;;;;;;39.65;20.80;;;1.10;99.90;;;;;;5056252;28;20503;-68
2023/02/16 02:45:28;;;;;;;37.80;20.48;;;1.00;99.90;;;;;;5056394;28;20042;-67
2023/02/16 02:47:54;;;;;;;44.30;21.88;;;1.00;99.90;;;;;;5054813;28;20474;-68
2023/02/16 02:50:39;;;;;;;39.83;21.77;;;1.00;99.90;;;;;;5055989;28;20025;-68
2023/02/16 02:53:12;;;;;;;39.75;20.48;;;1.10;99.90;;;;;;5054636;28;20028;-67
2023/02/16 03:01:18;;;;;;;35.38;18.23;;;1.10;99.90;;;;;;5056324;28;20076;-67
2023/02/16 03:03:53;;;;;;;35.83;19.08;;;1.20;99.90;;;;;;5055943;28;20025;-67
2023/02/16 03:06:27;;;;;;;42.03;19.63;;;1.20;99.90;;;;;;5054609;28;20053;-69
2023/02/16 03:08:59;;;;;;;34.78;19.25;;;1.20;99.90;;;;;;5054995;28;20115;-68
2023/02/16 03:14:38;;;;;;;41.03;20.33;;;1.10;99.90;;;;;;5056501;28;20051;-67
2023/02/16 03:31:08;;;;;;;38.88;19.60;;;1.20;99.90;;;;;;5055915;28;20066;-68
2023/02/16 03:33:35;;;;;;;34.85;20.10;;;1.20;99.90;;;;;;5065354;28;20544;-67
2023/02/16 03:36:01;;;;;;;;;;;1.30;99.90;;;;;;5075561;28;20074;-69
2023/02/16 03:38:27;;;;;;;34.13;18.77;;;1.20;99.90;;;;;;5075524;28;19999;-69
2023/02/16 03:40:53;;;;;;;34.80;18.55;;;1.10;99.90;;;;;;5075271;28;20020;-69
2023/02/16 03:43:24;;;;;;;33.47;18.40;;;1.20;99.90;;;;;;5075118;28;20067;-68
2023/02/16 03:45:50;;;;;;;36.08;18.65;;;1.00;99.90;;;;;;5074077;28;20035;-68
2023/02/16 03:48:15;;;;;;;41.07;18.10;;;0.90;99.90;;;;;;5075532;28;20444;-68
2023/02/16 03:50:41;;;;;;;36.93;19.10;;;0.90;99.90;;;;;;5076291;28;20557;-68
2023/02/16 03:53:06;;;;;;;35.63;19.57;;;0.90;99.90;;;;;;5075790;28;20028;-69
2023/02/16 03:55:38;;;;;;;33.77;18.63;;;1.00;99.90;;;;;;5076544;28;20424;-68
2023/02/16 03:58:07;;;;;;;35.67;19.27;;;1.00;99.90;;;;;;5075411;28;20453;-68
2023/02/16 04:00:34;;;;;;;36.90;19.75;;;1.00;99.90;;;;;;5076237;28;20027;-68
2023/02/16 04:02:59;;;;;;;;;;;0.90;99.90;;;;;;5075662;28;20107;-68
2023/02/16 04:05:25;;;;;;;32.53;18.38;;;0.90;99.90;;;;;;5076449;28;19959;-68
2023/02/16 04:07:50;;;;;;;36.27;19.30;;;1.00;99.90;;;;;;5076674;28;20021;-68
2023/02/16 04:10:16;;;;;;;35.10;19.70;;;1.10;99.90;;;;;;5076491;28;20020;-69
2023/02/16 04:12:42;;;;;;;39.37;19.37;;;1.00;99.90;;;;;;5075510;28;20386;-68
2023/02/16 04:15:11;;;;;;;40.00;20.38;;;0.90;99.90;;;;;;5075042;28;20051;-69
2023/02/16 04:17:36;;;;;;;36.35;20.17;;;1.00;99.90;;;;;;5074480;28;20044;-68
2023/02/16 04:20:03;;;;;;;32.50;19.37;;;1.00;99.90;;;;;;5074186;28;20028;-68
2023/02/16 04:22:29;;;;;;;31.55;17.83;;;1.10;99.90;;;;;;5074184;28;20119;-68
2023/02/16 04:24:54;;;;;;;35.30;19.10;;;1.20;99.90;;;;;;5073003;28;20119;-69
2023/02/16 04:27:20;;;;;;;33.07;18.53;;;1.20;99.90;;;;;;5072983;28;20150;-69
2023/02/16 04:29:45;;;;;;;31.80;19.20;;;1.00;99.90;;;;;;5072946;28;20051;-68
2023/02/16 04:32:11;;;;;;;35.03;18.87;;;0.90;99.90;;;;;;5072911;28;20017;-69
2023/02/16 04:34:36;;;;;;;33.07;18.27;;;0.90;99.90;;;;;;5053821;28;20029;-68
2023/02/16 04:37:02;;;;;;;35.20;19.57;;;0.90;99.90;;;;;;5054696;28;20029;-67
2023/02/16 04:39:28;;;;;;;33.70;18.73;;;0.90;99.90;;;;;;5052724;28;20027;-68
2023/02/16 04:41:53;;;;;;;34.87;19.10;;;0.90;99.90;;;;;;5054066;28;20067;-67
2023/02/16 04:44:19;;;;;;;35.40;19.53;;;1.00;99.90;;;;;;5052759;28;20029;-68
2023/02/16 04:46:44;;;;;;;38.13;19.37;;;1.00;99.90;;;;;;5054017;28;20022;-68
2023/02/16 04:49:10;;;;;;;34.27;19.17;;;1.00;99.90;;;;;;5054154;28;20166;-69
2023/02/16 04:51:35;;;;;;;35.93;19.30;;;1.10;99.90;;;;;;5053523;28;20096;-68
2023/02/16 04:54:01;;;;;;;36.80;20.67;;;1.20;99.90;;;;;;5053924;28;20025;-69
2023/02/16 04:56:27;;;;;;;38.20;20.03;;;1.10;99.90;;;;;;5054009;28;20033;-69
2023/02/16 04:58:52;;;;;;;36.47;19.87;;;1.00;99.90;;;;;;5053706;28;20025;-69
2023/02/16 05:01:23;;;;;;;43.63;18.88;;;1.00;99.90;;;;;;5052378;28;20534;-68
2023/02/16 05:03:49;;;;;;;34.47;17.77;;;0.90;99.90;;;;;;5065594;28;20035;-68
2023/02/16 05:06:14;;;;;;;32.10;18.90;;;0.80;99.90;;;;;;5073265;28;20017;-67
2023/02/16 05:08:40;;;;;;;32.23;17.70;;;0.90;99.90;;;;;;5073381;28;20267;-68
2023/02/16 05:16:34;;;;;;;32.30;18.35;;;1.00;99.90;;;;;;5075288;28;20035;-68
2023/02/16 05:18:59;;;;;;;38.23;18.23;;;1.00;99.90;;;;;;5073299;28;20021;-68
2023/02/16 05:21:31;;;;;;;34.30;19.00;;;1.00;99.90;;;;;;5073072;28;20497;-68
2023/02/16 05:24:02;;;;;;;35.70;19.20;;;1.00;99.90;;;;;;5073389;28;20039;-70
2023/02/16 05:26:27;;;;;;;34.85;18.38;;;1.00;99.90;;;;;;5073121;28;20036;-68
2023/02/16 05:28:54;;;;;;;35.20;18.17;;;1.00;99.90;;;;;;5073109;28;20535;-68
2023/02/16 05:31:20;;;;;;;34.55;17.38;;;1.00;99.90;;;;;;5071807;28;20033;-68
2023/02/16 05:33:46;;;;;;;35.40;17.88;;;1.10;99.90;;;;;;5071750;28;20025;-68
2023/02/16 05:36:11;;;;;;;36.30;18.67;;;1.10;99.90;;;;;;5072894;28;20020;-68
2023/02/16 05:38:37;;;;;;;34.13;18.57;;;1.00;99.90;;;;;;5073130;28;20570;-68
2023/02/16 05:41:03;;;;;;;30.20;17.37;;;1.00;99.90;;;;;;5072926;28;20020;-68
2023/02/16 05:43:28;;;;;;;37.50;19.63;;;0.90;99.90;;;;;;5072740;28;20032;-68
2023/02/16 05:45:54;;;;;;;29.87;17.70;;;0.90;99.90;;;;;;5072079;28;20035;-68
2023/02/16 05:48:19;;;;;;;36.80;17.77;;;0.90;99.90;;;;;;5073130;28;20377;-68
2023/02/16 05:50:45;;;;;;;39.37;19.00;;;0.80;99.90;;;;;;5071532;28;20025;-68
2023/02/16 05:53:10;;;;;;;35.67;17.97;;;0.80;99.90;;;;;;5072878;28;20016;-69
2023/02/16 05:55:36;;;;;;;36.63;19.70;;;0.80;99.90;;;;;;5059462;28;20017;-69
2023/02/16 05:58:02;;;;;;;33.70;17.80;;;0.90;99.90;;;;;;5051511;28;20512;-69
2023/02/16 06:00:32;;;;;;;32.70;17.52;;;0.80;99.90;;;;;;5052915;28;20129;-68
2023/02/16 06:03:01;;;;;;;34.42;18.65;;;0.70;99.90;;;;;;5061594;28;20127;-70
2023/02/16 06:05:26;;;;;;;33.38;18.55;;;0.70;99.90;;;;;;5072522;28;20037;-68
2023/02/16 06:07:52;;;;;;;34.23;19.10;;;0.80;99.90;;;;;;5071657;28;20393;-69
2023/02/16 06:10:17;;;;;;;32.07;17.77;;;0.80;99.90;;;;;;5071570;28;20110;-73
2023/02/16 06:12:44;;;;;;;31.80;17.98;;;0.60;99.90;;;;;;5071428;28;20028;-68
2023/02/16 06:15:09;;;;;;;36.78;18.38;;;0.70;99.90;;;;;;5072925;28;20108;-68
2023/02/16 06:17:35;;;;;;;35.93;18.23;;;0.60;99.90;;;;;;5071655;28;20070;-69
2023/02/16 06:20:01;;;;;;;36.10;19.77;;;0.50;99.90;;;;;;5072680;28;20024;-67
2023/02/16 06:22:26;;;;;;;31.40;18.27;;;0.60;99.90;;;;;;5072682;28;20029;-64
2023/02/16 06:24:52;;;;;;;31.50;18.20;;;0.60;99.90;;;;;;5072669;28;20513;-69
2023/02/16 06:27:18;;;;;;;41.37;21.87;;;0.80;99.90;;;;;;5072706;28;20032;-69
2023/02/16 06:29:43;;;;;;;32.20;18.53;;;0.70;99.90;;;;;;5070523;28;20032;-70
2023/02/16 06:32:09;;;;;;;36.07;19.13;;;0.60;99.90;;;;;;5069167;28;20021;-66
2023/02/16 06:34:34;;;;;;;32.07;18.07;;;0.70;99.90;;;;;;5063382;28;20029;-65
2023/02/16 06:37:00;;;;;;;32.50;17.97;;;0.70;99.90;;;;;;5050694;28;20033;-65
2023/02/16 06:39:26;;;;;;;34.93;18.73;;;0.80;99.90;;;;;;5060382;28;20044;-64
2023/02/16 06:41:51;;;;;;;31.00;17.53;;;0.80;99.90;;;;;;5070446;28;20060;-65
2023/02/16 06:44:17;;;;;;;34.07;17.47;;;0.90;99.90;;;;;;5069305;28;20024;-65
2023/02/16 06:46:45;;;;;;;28.23;16.92;;;0.80;99.90;;;;;;5072564;28;20028;-62
2023/02/16 06:49:19;;;;;;;30.70;18.75;;;0.90;99.90;;;;;;5072409;28;20032;-64
2023/02/16 06:51:45;;;;;;;34.33;18.10;;;0.70;99.90;;;;;;5071351;28;20354;-69
2023/02/16 06:54:11;;;;;;;32.47;18.27;;;0.60;99.90;;;;;;5072211;28;20025;-69
2023/02/16 06:56:37;;;;;;;33.53;17.85;;;0.60;99.90;;;;;;5053826;28;20127;-69
2023/02/16 06:59:02;;;;;;;33.77;18.60;;;0.60;99.90;;;;;;5054902;28;20025;-70
2023/02/16 07:01:28;;;;;;;34.65;17.95;;;0.60;99.90;;;;;;5053389;28;20033;-69
2023/02/16 07:03:55;;;;;;;33.33;17.58;;;0.70;99.90;;;;;;5056072;28;20090;-69
2023/02/16 07:06:23;;;;;;;34.83;19.67;;;0.80;99.90;;;;;;5056153;28;20035;-70
2023/02/16 07:08:49;;;;;;;32.72;18.42;;;0.80;99.90;;;;;;5056246;28;20017;-69
2023/02/16 07:11:16;;;;;;;32.08;18.13;;;0.80;99.90;;;;;;5056056;28;20089;-69
2023/02/16 07:13:41;;;;;;;36.13;19.40;;;0.70;99.90;;;;;;5055933;28;20359;-69
2023/02/16 07:16:08;;;;;;;40.08;18.45;;;0.80;99.90;;;;;;5056243;28;20081;-69
2023/02/16 07:18:34;;;;;;;32.17;18.67;;;0.90;99.90;;;;;;5054264;28;20028;-68
2023/02/16 07:20:59;;;;;;;34.67;19.15;;;0.90;99.90;;;;;;5073943;28;20373;-68
2023/02/16 07:23:25;;;;;;;35.30;18.83;;;0.90;99.90;;;;;;5066839;28;20028;-69
2023/02/16 07:25:51;;;;;;;34.13;18.73;;;1.00;99.90;;;;;;5060193;28;20032;-69
2023/02/16 07:28:17;;;;;;;32.83;18.60;;;1.20;99.90;;;;;;5054779;28;20106;-68
2023/02/16 07:30:42;;;;;;;35.70;19.58;;;1.20;99.90;;;;;;5058237;28;20033;-68
2023/02/16 07:33:09;;;;;;;33.37;18.57;;;1.30;99.90;;;;;;5055240;28;20036;-68
2023/02/16 07:35:35;;;;;;;30.67;17.30;;;1.40;99.90;;;;;;5055248;28;20134;-68
2023/02/16 07:38:02;;;;;;;34.15;18.17;;;1.40;99.90;;;;;;5055140;28;20427;-68
2023/02/16 07:40:27;;;;;;;;;;;1.30;99.90;;;;;;5055731;28;20035;-68
2023/02/16 07:42:53;;;;;;;35.00;18.08;;;1.50;99.90;;;;;;5055169;28;20525;-68
2023/02/16 07:45:19;;;;;;;33.30;18.73;;;1.50;99.90;;;;;;5053926;28;20033;-69
2023/02/16 07:47:44;;;;;;;33.67;18.23;;;1.40;99.90;;;;;;5054947;28;20271;-68
2023/02/16 07:50:10;;;;;;;31.83;18.00;;;1.50;99.90;;;;;;5053401;28;20024;-68
2023/02/16 07:52:36;;;;;;;36.70;21.00;;;1.50;99.90;;;;;;5055029;28;20049;-69
2023/02/16 07:55:02;;;;;;;32.07;17.30;;;1.40;99.90;;;;;;5062334;28;20031;-69
2023/02/16 07:57:28;;;;;;;33.05;19.13;;;1.40;99.90;;;;;;5073849;28;20032;-68
2023/02/16 07:59:54;;;;;;;34.97;18.65;;;1.30;99.90;;;;;;5075079;28;20420;-69
2023/02/16 08:02:21;;;;;;;31.35;18.25;;;1.50;99.90;;;;;;5075078;28;20032;-69
2023/02/16 08:04:47;;;;;;;34.20;18.85;;;1.60;99.90;;;;;;5074386;28;20123;-68
2023/02/16 08:07:14;;;;;;;31.92;17.95;;;1.70;99.90;;;;;;5073585;28;20017;-69
2023/02/16 08:09:40;;;;;;;33.42;17.88;;;1.80;99.90;;;;;;5074850;28;20028;-69
2023/02/16 08:12:11;;;;;;;35.13;19.23;;;1.80;99.90;;;;;;5075419;28;20096;-69
2023/02/16 08:14:37;;;;;;;33.65;19.52;;;1.80;99.90;;;;;;5074801;28;20036;-68
2023/02/16 08:17:04;;;;;;;36.40;19.40;;;1.90;99.90;;;;;;5059065;28;20021;-68
2023/02/16 08:19:30;;;;;;;32.78;17.27;;;2.00;99.90;;;;;;5054596;28;20120;-71
2023/02/16 08:21:57;;;;;;;32.07;18.83;;;2.10;99.90;;;;;;5055110;28;20474;-71
2023/02/16 08:24:23;;;;;;;34.95;18.70;;;2.40;99.90;;;;;;5058771;28;20025;-70
2023/02/16 08:26:51;;;;;;;34.20;18.80;;;2.50;99.90;;;;;;5093555;28;20096;-71
2023/02/16 08:29:18;;;;;;;32.35;17.83;;;2.60;99.90;;;;;;5094758;28;20043;-70
2023/02/16 08:31:45;;;;;;;35.67;18.55;;;2.70;99.90;;;;;;5094106;28;20051;-70
2023/02/16 08:34:14;;;;;;;31.08;18.80;;;2.80;99.90;;;;;;5097946;28;20024;-71
2023/02/16 08:36:43;;;;;;;32.13;18.70;;;2.90;99.90;;;;;;5097615;28;20034;-70
2023/02/16 08:39:14;;;;;;;29.48;17.50;;;3.10;99.90;;;;;;5097539;28;20024;-69
2023/02/16 08:41:40;;;;;;;33.42;18.25;;;3.20;99.90;;;;;;5095343;28;20035;-69
2023/02/16 08:44:07;;;;;;;;;;;3.20;99.90;;;;;;5096927;28;20028;-71
2023/02/16 08:46:33;;;;;;;35.38;18.08;;;3.20;99.90;;;;;;5095073;28;19904;-70
2023/02/16 08:49:00;;;;;;;33.30;18.75;;;3.40;99.90;;;;;;5094368;28;20024;-70
2023/02/16 08:51:28;;;;;;;35.63;19.08;;;3.20;99.90;;;;;;5094037;28;20039;-69
2023/02/16 08:53:55;;;;;;;35.60;19.05;;;3.00;99.90;;;;;;5092825;28;20205;-70
2023/02/16 08:56:22;;;;;;;36.58;20.83;;;2.70;99.90;;;;;;5075530;28;20013;-70
2023/02/16 08:58:48;;;;;;;40.47;22.02;;;2.80;99.90;;;;;;5074125;28;20025;-70
2023/02/16 09:01:15;;;;;;;41.33;22.03;;;2.80;99.90;;;;;;5073186;28;20066;-69
2023/02/16 09:03:41;;;;;;;40.53;20.30;;;2.90;99.90;;;;;;5072537;28;20025;-69
2023/02/16 09:06:09;;;;;;;43.90;21.55;;;3.00;99.90;;;;;;5072930;28;20021;-69
2023/02/16 09:08:36;;;;;;;35.40;20.52;;;2.90;99.90;;;;;;5075849;28;20477;-70
2023/02/16 09:11:04;;;;;;;43.28;20.63;;;3.00;99.90;;;;;;5072728;28;20457;-70
2023/02/16 09:13:29;;;;;;;44.22;21.85;;;2.60;99.90;;;;;;5074641;28;20023;-69
2023/02/16 09:16:01;;;;;;;41.33;21.27;;;2.70;99.90;;;;;;5073717;28;20021;-69
2023/02/16 09:18:27;;;;;;;42.15;22.50;;;2.60;99.90;;;;;;5061966;28;20036;-74
2023/02/16 09:20:52;;;;;;;41.63;23.73;;;2.80;99.90;;;;;;5064123;28;20025;-73
2023/02/16 09:23:19;;;;;;;39.80;21.57;;;3.10;99.90;;;;;;5067625;28;20029;-73
2023/02/16 09:25:45;;;;;;;43.30;22.98;;;3.40;99.90;;;;;;5053383;28;20390;-72
2023/02/16 09:28:12;;;;;;;38.53;21.57;;;3.50;99.90;;;;;;5057803;28;20029;-71
2023/02/16 09:30:38;;;;;;;36.60;20.77;;;3.80;99.90;;;;;;5067294;28;20027;-72
2023/02/16 09:33:04;;;;;;;35.40;21.10;;;3.70;99.90;;;;;;5072391;28;20024;-73
2023/02/16 09:35:30;;;;;;;35.08;20.35;;;3.70;99.90;;;;;;5072058;28;20074;-67
2023/02/16 09:37:56;;;;;;;32.75;19.35;;;3.80;99.90;;;;;;5073280;28;20020;-65
2023/02/16 09:40:23;;;;;;;31.45;19.98;;;4.10;99.90;;;;;;5073111;28;20032;-67
2023/02/16 09:43:07;;;;;;;;;;;4.90;99.90;;;;;;5073345;28;20029;-65
2023/02/16 09:45:42;;;;;;;30.20;18.08;;;6.60;99.90;;;;;;5073244;28;20011;-64
2023/02/16 09:48:26;;;;;;;28.38;17.13;;;7.10;99.90;;;;;;5072964;28;20156;-65
2023/02/16 09:50:53;;;;;;;28.52;17.30;;;7.50;99.90;;;;;;5073262;28;20103;-74
2023/02/16 09:53:38;;;;;;;28.60;16.98;;;9.40;99.90;;;;;;5072542;28;20016;-74
2023/02/16 09:56:06;;;;;;;28.35;17.08;;;10.70;99.90;;;;;;5071911;28;20056;-64
2023/02/16 09:59:00;;;;;;;26.42;16.92;;;11.60;99.90;;;;;;5072962;28;20492;-74
2023/02/16 10:01:38;;;;;;;23.33;15.75;;;12.10;99.90;;;;;;5073549;28;20056;-66
2023/02/16 10:04:19;;;;;;;24.45;15.48;;;11.20;99.90;;;;;;5073935;28;20021;-77
2023/02/16 10:07:16;;;;;;;23.08;15.90;;;10.50;99.90;;;;;;5072105;28;20086;-67
2023/02/16 10:09:46;;;;;;;22.85;15.95;;;9.50;99.90;;;;;;5071729;28;20017;-67
2023/02/16 10:12:21;;;;;;;22.88;15.40;;;9.60;99.90;;;;;;5072940;28;20033;-66
2023/02/16 10:14:50;;;;;;;23.92;15.95;;;9.70;99.90;;;;;;5071790;28;20047;-75
2023/02/16 10:17:37;;;;;;;23.40;15.80;;;9.70;99.90;;;;;;5073237;28;20354;-73
2023/02/16 10:20:20;;;;;;;23.20;16.27;;;10.10;99.90;;;;;;5072490;28;20180;-74
2023/02/16 10:23:03;;;;;;;20.10;14.95;;;11.10;99.90;;;;;;5073187;28;20377;-66
2023/02/16 10:25:54;;;;;;;24.23;15.07;;;12.20;99.90;;;;;;5072556;28;20082;-66
2023/02/16 10:28:35;;;;;;;21.27;14.73;;;12.70;99.90;;;;;;5072795;28;20481;-65
2023/02/16 10:31:04;;;;;;;24.70;16.30;;;13.40;99.20;;;;;;5072856;28;20112;-66
2023/02/16 10:33:39;;;;;;;23.15;15.18;;;14.00;97.70;;;;;;5075309;28;20056;-66
2023/02/16 10:36:15;;;;;;;23.40;15.13;;;14.70;96.70;;;;;;5076369;28;20025;-66
2023/02/16 10:38:59;;;;;;;20.83;15.65;;;15.50;95.20;;;;;;5077285;28;20464;-65
2023/02/16 10:41:35;;;;;;;20.27;14.90;;;16.30;93.70;;;;;;5071194;28;20059;-65
2023/02/16 10:44:07;;;;;;;22.05;15.95;;;17.20;92.40;;;;;;5055047;28;20033;-65
2023/02/16 10:46:42;;;;;;;19.67;14.82;;;18.50;90.10;;;;;;5055793;28;20025;-75
2023/02/16 10:49:11;;;;;;;21.08;15.73;;;18.80;87.70;;;;;;5055224;28;20338;-74
2023/02/16 10:51:39;;;;;;;22.35;15.85;;;18.90;86.40;;;;;;5058580;28;20432;-77
2023/02/16 10:54:11;;;;;;;22.10;15.48;;;19.30;84.40;;;;;;5056838;28;20028;-75
2023/02/16 10:56:55;;;;;;;20.10;15.23;;;19.70;82.90;;;;;;5060856;28;20059;-79
2023/02/16 10:59:35;;;;;;;18.70;14.98;;;20.00;81.80;;;;;;5055175;28;20434;-73
2023/02/16 11:02:23;;;;;;;22.08;15.38;;;20.50;79.90;;;;;;5073674;28;20467;-71
2023/02/16 11:04:52;;;;;;;20.95;15.32;;;20.60;78.90;;;;;;5078055;28;20107;-66
2023/02/16 11:07:23;;;;;;;18.08;14.85;;;20.00;77.90;;;;;;5074792;28;20039;-67
2023/02/16 11:09:52;;;;;;;21.52;15.43;;;20.40;78.30;;;;;;5075783;28;20020;-66
2023/02/16 11:12:34;;;;;;;19.60;15.63;;;20.50;77.10;;;;;;5075337;28;20020;-67
2023/02/16 11:15:15;;;;;;;20.20;15.10;;;20.00;77.60;;;;;;5075986;28;20378;-66
2023/02/16 11:18:03;;;;;;;20.75;16.10;;;18.80;79.50;;;;;;5075730;28;20038;-66
2023/02/16 11:20:34;;;;;;;19.90;15.50;;;17.70;81.60;;;;;;5075718;28;20028;-68
2023/02/16 11:23:28;;;;;;;23.33;16.48;;;15.70;86.20;;;;;;5075702;28;20033;-65
2023/02/16 11:25:55;;;;;;;23.20;16.98;;;14.20;90.60;;;;;;5075432;28;20445;-66
2023/02/16 11:28:26;;;;;;;24.70;16.73;;;13.00;92.80;;;;;;5075778;28;20021;-66
2023/02/16 11:31:01;;;;;;;22.33;15.90;;;12.10;95.00;;;;;;5075429;28;20024;-67
2023/02/16 11:33:27;;;;;;;25.02;16.88;;;11.50;97.20;;;;;;5075806;28;20122;-66
2023/02/16 11:35:54;;;;;;;24.27;17.10;;;11.20;98.80;;;;;;5075553;28;20098;-67
2023/02/16 11:38:26;;;;;;;25.30;16.63;;;10.70;99.90;;;;;;5075981;28;20477;-66
2023/02/16 11:40:53;;;;;;;25.88;16.08;;;10.70;99.90;;;;;;5075125;28;20028;-66
2023/02/16 11:43:19;;;;;;;27.63;16.08;;;10.70;99.90;;;;;;5073990;28;20055;-66
2023/02/16 11:45:57;;;;;;;24.10;16.80;;;10.80;99.90;;;;;;5072452;28;20465;-67
2023/02/16 11:48:30;;;;;;;24.38;16.17;;;10.80;99.90;;;;;;5063819;28;20489;-66
2023/02/16 11:51:07;;;;;;;24.58;16.33;;;10.70;99.90;;;;;;5073718;28;20035;-67
2023/02/16 11:53:36;;;;;;;23.02;15.55;;;10.90;99.90;;;;;;5053848;28;20390;-66
2023/02/16 11:56:24;;;;;;;23.73;15.88;;;10.90;99.90;;;;;;5055456;28;20032;-73
2023/02/16 11:59:16;;;;;;;24.67;15.15;;;11.00;99.90;;;;;;5055869;28;20021;-73
2023/02/16 12:01:47;;;;;;;24.02;15.02;;;11.10;99.90;;;;;;5055597;28;20060;-73
2023/02/16 12:04:23;;;;;;;19.65;13.40;;;11.00;99.90;;;;;;5054934;28;20047;-75
2023/02/16 12:07:28;;;;;;;22.75;14.20;;;11.10;99.90;;;;;;5056779;28;20033;-66
2023/02/16 12:10:06;;;;;;;23.33;13.70;;;11.10;99.90;;;;;;5054277;28;20087;-73
2023/02/16 12:13:03;;;;;;;22.00;14.75;;;11.10;99.90;;;;;;5055257;28;20448;-69
2023/02/16 12:15:38;;;;;;;25.80;13.03;;;11.10;99.90;;;;;;5054088;28;20041;-68
2023/02/16 12:18:04;;;;;;;21.27;13.30;;;11.20;99.90;;;;;;5054983;28;20264;-68
2023/02/16 12:20:59;;;;;;;23.37;14.03;;;11.20;99.90;;;;;;5054240;28;20024;-69
2023/02/16 12:24:03;;;;;;;20.92;12.77;;;11.40;99.90;;;;;;5074663;28;20039;-70
2023/02/16 12:26:30;;;;;;;21.73;13.07;;;11.60;99.90;;;;;;5051703;28;20152;-68
2023/02/16 12:29:19;;;;;;;16.80;12.23;;;11.90;99.90;;;;;;5074470;28;20027;-69
2023/02/16 12:32:06;;;;;;;19.55;11.90;;;11.90;99.90;;;;;;5068258;28;20489;-68
2023/02/16 12:34:37;;;;;;;20.57;12.80;;;12.00;99.90;;;;;;5063804;28;20036;-68
2023/02/16 12:37:12;;;;;;;20.35;12.60;;;11.80;99.90;;;;;;5060732;28;20024;-67
2023/02/16 12:39:45;;;;;;;18.50;12.57;;;11.90;99.90;;;;;;5074897;28;20388;-70
2023/02/16 12:42:44;;;;;;;18.35;12.45;;;11.90;99.90;;;;;;5074231;28;20024;-69
2023/02/16 12:45:21;;;;;;;22.55;11.88;;;11.80;99.90;;;;;;5076458;28;20554;-69
2023/02/16 12:47:55;;;;;;;19.42;11.30;;;11.80;99.90;;;;;;5075131;28;20035;-67
2023/02/16 12:50:27;;;;;;;22.30;12.77;;;11.70;99.90;;;;;;5072704;28;20028;-66
2023/02/16 12:53:12;;;;;;;21.40;12.80;;;11.80;99.90;;;;;;5072175;28;20043;-66
2023/02/16 12:55:49;;;;;;;24.38;12.43;;;11.90;99.90;;;;;;5074077;28;20089;-66
2023/02/16 12:58:24;;;;;;;;;;;12.00;99.90;;;;;;5075456;28;20542;-67
2023/02/16 13:01:10;;;;;;;22.63;12.27;;;12.20;99.90;;;;;;5075377;28;19904;-65
2023/02/16 13:04:00;;;;;;;19.23;11.52;;;12.30;99.90;;;;;;5076200;28;20055;-69
2023/02/16 13:06:45;;;;;;;15.55;10.43;;;12.40;99.90;;;;;;5079211;28;20028;-76
2023/02/16 13:09:48;;;;;;;18.55;10.48;;;12.50;99.90;;;;;;5083507;28;20025;-76
2023/02/16 13:12:46;;;;;;;18.27;9.85;;;12.50;99.90;;;;;;5065084;28;20032;-73
2023/02/16 13:15:36;;;;;;;18.52;9.32;;;12.60;99.90;;;;;;5052979;28;20376;-65
2023/02/16 13:18:27;;;;;;;14.63;9.20;;;12.70;99.90;;;;;;5052608;28;20032;-73
2023/02/16 13:21:07;;;;;;;16.70;9.43;;;12.80;99.90;;;;;;5053401;28;20048;-74
2023/02/16 13:24:00;;;;;;;15.77;9.60;;;12.90;99.90;;;;;;5055522;28;20048;-76
2023/02/16 13:26:58;;;;;;;15.70;9.05;;;13.00;99.90;;;;;;5053923;28;20086;-76
2023/02/16 13:29:46;;;;;;;16.35;10.25;;;13.10;99.90;;;;;;5054440;28;20547;-76
2023/02/16 13:32:47;;;;;;;14.88;9.00;;;13.20;99.80;;;;;;5055066;28;20021;-74
2023/02/16 13:35:50;;;;;;;16.70;9.05;;;13.30;99.10;;;;;;5053841;28;20035;-75
2023/02/16 13:38:31;;;;;;;17.70;8.45;;;13.40;99.30;;;;;;5052676;28;20509;-74